PWSweather.com
Personal Weather Stations
Station Observations
WODONGA
Wodonga, WodongaAU 3690

WodongaWodongaAU 3690

Lat: -36.121, Lon: 146.87

Elevation: 541

Station Type: Weather Station

http://www.wodongaweather.net

High Low Average
Temperature 77.7°F25.4°F 58.3°F14.6°F 69.8°F21.0°F
Dew Point 68.5°F20.3°F 53.3°F11.8°F 60.8°F16.0°F
Winds 18.9 mph NW30.4 mph NW Calm Calm 4.3 mph 6.9 mph
Wind Gusts 29.8 mph48.0 mph -- 6.8 mph10.9 mph
Humidity 95% 45% 75%
Pressure 29.92 in1013.20 in 29.72 in1006.40 in -
Precipitation 7.86 in199.60 in - -
Hour Temp Dew Point Humidity Winds Wind Gusts Pressure Precip Precip Rate Daily Precip Total
12:00 AM 76.3°F24.6°C 54.6°F12.6°C 47% 3.5 mph WSW5.6 kmh WSW 6.0 mph9.7 kmh 29.92 in1013.2 mb 0.00 in0.0 mm 0.00 in/hr0.0 mm/hr 0.00 in0.0 mm
12:05 AM 76.5°F24.7°C 54.2°F12.3°C 46% 4.0 mph W6.4 kmh W 6.0 mph9.7 kmh 29.92 in1013.2 mb 0.00 in0.0 mm 0.00 in/hr0.0 mm/hr 0.00 in0.0 mm
12:10 AM 76.5°F24.7°C 54.8°F12.7°C 47% 3.6 mph W5.8 kmh W 4.5 mph7.2 kmh 29.91 in1012.9 mb 0.00 in0.0 mm 0.00 in/hr0.0 mm/hr 0.00 in0.0 mm
12:15 AM 76.1°F24.5°C 55.0°F12.8°C 48% 3.2 mph WSW5.1 kmh WSW 4.5 mph7.2 kmh 29.91 in1012.9 mb 0.00 in0.0 mm 0.00 in/hr0.0 mm/hr 0.00 in0.0 mm
12:20 AM 75.9°F24.4°C 54.3°F12.4°C 47% 4.4 mph SW7.1 kmh SW 7.6 mph12.2 kmh 29.90 in1012.5 mb 0.00 in0.0 mm 0.00 in/hr0.0 mm/hr 0.00 in0.0 mm
12:25 AM 76.1°F24.5°C 53.9°F12.2°C 46% 6.8 mph S10.9 kmh S 11.4 mph18.3 kmh 29.90 in1012.5 mb 0.00 in0.0 mm 0.00 in/hr0.0 mm/hr 0.00 in0.0 mm
12:30 AM 75.9°F24.4°C 54.3°F12.4°C 47% 6.7 mph S10.8 kmh S 11.4 mph18.3 kmh 29.89 in1012.2 mb 0.00 in0.0 mm 0.00 in/hr0.0 mm/hr 0.00 in0.0 mm
12:35 AM 75.9°F24.4°C 53.7°F12.1°C 46% 6.0 mph SSW9.7 kmh SSW 8.3 mph13.4 kmh 29.89 in1012.2 mb 0.00 in0.0 mm 0.00 in/hr0.0 mm/hr 0.00 in0.0 mm
12:40 AM 76.1°F24.5°C 53.3°F11.8°C 45% 5.9 mph S9.5 kmh S 8.3 mph13.4 kmh 29.89 in1012.2 mb 0.00 in0.0 mm 0.00 in/hr0.0 mm/hr 0.00 in0.0 mm
12:45 AM 76.1°F24.5°C 53.3°F11.8°C 45% 3.9 mph SW6.3 kmh SW 6.9 mph11.1 kmh 29.89 in1012.2 mb 0.00 in0.0 mm 0.00 in/hr0.0 mm/hr 0.00 in0.0 mm
12:50 AM 76.1°F24.5°C 53.3°F11.8°C 45% 2.5 mph SW4.0 kmh SW 4.5 mph7.2 kmh 29.89 in1012.2 mb 0.00 in0.0 mm 0.00 in/hr0.0 mm/hr 0.00 in0.0 mm
12:55 AM 76.1°F24.5°C 53.3°F11.8°C 45% 2.3 mph WSW3.7 kmh WSW 4.5 mph7.2 kmh 29.89 in1012.2 mb 0.00 in0.0 mm 0.00 in/hr0.0 mm/hr 0.00 in0.0 mm
01:00 AM 76.1°F24.5°C 53.9°F12.2°C 46% 2.4 mph NNW3.9 kmh NNW 3.8 mph6.1 kmh 29.89 in1012.2 mb 0.00 in0.0 mm 0.00 in/hr0.0 mm/hr 0.00 in0.0 mm
01:05 AM 75.7°F24.3°C 54.7°F12.6°C 48% 2.3 mph NNE3.7 kmh NNE 3.8 mph6.1 kmh 29.89 in1012.2 mb 0.00 in0.0 mm 0.00 in/hr0.0 mm/hr 0.00 in0.0 mm
01:10 AM 75.4°F24.1°C 55.5°F13.1°C 50% 1.8 mph NE2.9 kmh NE 3.1 mph5.0 kmh 29.88 in1011.9 mb 0.00 in0.0 mm 0.00 in/hr0.0 mm/hr 0.00 in0.0 mm
01:15 AM 75.0°F23.9°C 55.7°F13.2°C 51% 1.9 mph NNE3.1 kmh NNE 3.1 mph5.0 kmh 29.88 in1011.9 mb 0.00 in0.0 mm 0.00 in/hr0.0 mm/hr 0.00 in0.0 mm
01:20 AM 74.5°F23.6°C 55.2°F12.9°C 51% 2.2 mph NNE3.5 kmh NNE 3.8 mph6.1 kmh 29.88 in1011.9 mb 0.00 in0.0 mm 0.00 in/hr0.0 mm/hr 0.00 in0.0 mm
01:25 AM 74.7°F23.7°C 55.9°F13.3°C 52% 2.9 mph N4.7 kmh N 6.0 mph9.7 kmh 29.87 in1011.5 mb 0.00 in0.0 mm 0.00 in/hr0.0 mm/hr 0.00 in0.0 mm
01:30 AM 74.3°F23.5°C 55.6°F13.1°C 52% 3.4 mph N5.5 kmh N 6.0 mph9.7 kmh 29.87 in1011.5 mb 0.00 in0.0 mm 0.00 in/hr0.0 mm/hr 0.00 in0.0 mm
01:35 AM 74.5°F23.6°C 55.7°F13.2°C 52% 3.4 mph NE5.5 kmh NE 4.5 mph7.2 kmh 29.86 in1011.2 mb 0.00 in0.0 mm 0.00 in/hr0.0 mm/hr 0.00 in0.0 mm
01:40 AM 74.1°F23.4°C 55.4°F13.0°C 52% 4.4 mph NE7.1 kmh NE 6.9 mph11.1 kmh 29.87 in1011.5 mb 0.00 in0.0 mm 0.00 in/hr0.0 mm/hr 0.00 in0.0 mm
01:45 AM 73.9°F23.3°C 55.2°F12.9°C 52% 4.4 mph ENE7.1 kmh ENE 6.9 mph11.1 kmh 29.86 in1011.2 mb 0.00 in0.0 mm 0.00 in/hr0.0 mm/hr 0.00 in0.0 mm
01:50 AM 73.9°F23.3°C 55.8°F13.2°C 53% 2.6 mph E4.2 kmh E 6.0 mph9.7 kmh 29.86 in1011.2 mb 0.00 in0.0 mm 0.00 in/hr0.0 mm/hr 0.00 in0.0 mm
01:55 AM 73.8°F23.2°C 55.6°F13.1°C 53% 2.2 mph SE3.5 kmh SE 3.1 mph5.0 kmh 29.86 in1011.2 mb 0.00 in0.0 mm 0.00 in/hr0.0 mm/hr 0.00 in0.0 mm
02:00 AM 73.4°F23.0°C 55.8°F13.2°C 54% 2.1 mph SE3.4 kmh SE 3.1 mph5.0 kmh 29.86 in1011.2 mb 0.00 in0.0 mm 0.00 in/hr0.0 mm/hr 0.00 in0.0 mm
02:05 AM 72.9°F22.7°C 55.3°F12.9°C 54% 2.0 mph S3.2 kmh S 3.8 mph6.1 kmh 29.86 in1011.2 mb 0.00 in0.0 mm 0.00 in/hr0.0 mm/hr 0.00 in0.0 mm
02:10 AM 72.9°F22.7°C 55.3°F12.9°C 54% 1.9 mph S3.1 kmh S 3.8 mph6.1 kmh 29.85 in1010.8 mb 0.00 in0.0 mm 0.00 in/hr0.0 mm/hr 0.00 in0.0 mm
02:15 AM 72.5°F22.5°C 54.9°F12.7°C 54% 1.5 mph S2.4 kmh S 2.2 mph3.5 kmh 29.85 in1010.8 mb 0.00 in0.0 mm 0.00 in/hr0.0 mm/hr 0.00 in0.0 mm
02:20 AM 72.1°F22.3°C 55.1°F12.8°C 55% 1.6 mph S2.6 kmh S 2.2 mph3.5 kmh 29.85 in1010.8 mb 0.00 in0.0 mm 0.00 in/hr0.0 mm/hr 0.00 in0.0 mm
02:25 AM 72.1°F22.3°C 55.1°F12.8°C 55% 0.9 mph S1.4 kmh S 2.2 mph3.5 kmh 29.86 in1011.2 mb 0.00 in0.0 mm 0.00 in/hr0.0 mm/hr 0.00 in0.0 mm
02:30 AM 72.0°F22.2°C 55.4°F13.0°C 56% 0.7 mph N1.1 kmh N 1.6 mph2.6 kmh 29.86 in1011.2 mb 0.00 in0.0 mm 0.00 in/hr0.0 mm/hr 0.00 in0.0 mm
02:35 AM 71.6°F22.0°C 55.1°F12.8°C 56% 1.0 mph N1.6 kmh N 1.6 mph2.6 kmh 29.85 in1010.8 mb 0.00 in0.0 mm 0.00 in/hr0.0 mm/hr 0.00 in0.0 mm
02:40 AM 71.8°F22.1°C 55.8°F13.2°C 57% 1.5 mph ENE2.4 kmh ENE 3.1 mph5.0 kmh 29.85 in1010.8 mb 0.00 in0.0 mm 0.00 in/hr0.0 mm/hr 0.00 in0.0 mm
02:45 AM 71.8°F22.1°C 55.3°F12.9°C 56% 2.4 mph E3.9 kmh E 3.1 mph5.0 kmh 29.86 in1011.2 mb 0.00 in0.0 mm 0.00 in/hr0.0 mm/hr 0.00 in0.0 mm
02:50 AM 72.0°F22.2°C 55.9°F13.3°C 57% 2.8 mph ESE4.5 kmh ESE 3.8 mph6.1 kmh 29.85 in1010.8 mb 0.00 in0.0 mm 0.00 in/hr0.0 mm/hr 0.00 in0.0 mm
02:55 AM 72.0°F22.2°C 55.9°F13.3°C 57% 2.4 mph SSE3.9 kmh SSE 3.8 mph6.1 kmh 29.85 in1010.8 mb 0.00 in0.0 mm 0.00 in/hr0.0 mm/hr 0.00 in0.0 mm
03:00 AM 71.8°F22.1°C 55.8°F13.2°C 57% 1.9 mph S3.1 kmh S 2.2 mph3.5 kmh 29.85 in1010.8 mb 0.00 in0.0 mm 0.00 in/hr0.0 mm/hr 0.00 in0.0 mm
03:05 AM 71.8°F22.1°C 55.8°F13.2°C 57% 2.1 mph SSE3.4 kmh SSE 3.1 mph5.0 kmh 29.85 in1010.8 mb 0.00 in0.0 mm 0.00 in/hr0.0 mm/hr 0.00 in0.0 mm
03:10 AM 71.6°F22.0°C 55.6°F13.1°C 57% 2.4 mph SSE3.9 kmh SSE 3.8 mph6.1 kmh 29.85 in1010.8 mb 0.00 in0.0 mm 0.00 in/hr0.0 mm/hr 0.00 in0.0 mm
03:15 AM 71.4°F21.9°C 55.9°F13.3°C 58% 3.0 mph SSE4.8 kmh SSE 3.8 mph6.1 kmh 29.85 in1010.8 mb 0.00 in0.0 mm 0.00 in/hr0.0 mm/hr 0.00 in0.0 mm
03:20 AM 71.2°F21.8°C 55.7°F13.2°C 58% 3.3 mph SE5.3 kmh SE 3.8 mph6.1 kmh 29.84 in1010.5 mb 0.00 in0.0 mm 0.00 in/hr0.0 mm/hr 0.00 in0.0 mm
03:25 AM 71.2°F21.8°C 56.2°F13.4°C 59% 3.3 mph SE5.3 kmh SE 3.8 mph6.1 kmh 29.84 in1010.5 mb 0.00 in0.0 mm 0.00 in/hr0.0 mm/hr 0.00 in0.0 mm
03:30 AM 71.1°F21.7°C 56.5°F13.6°C 60% 2.9 mph SE4.7 kmh SE 3.8 mph6.1 kmh 29.84 in1010.5 mb 0.00 in0.0 mm 0.00 in/hr0.0 mm/hr 0.00 in0.0 mm
03:35 AM 71.1°F21.7°C 56.5°F13.6°C 60% 2.8 mph SE4.5 kmh SE 3.8 mph6.1 kmh 29.84 in1010.5 mb 0.00 in0.0 mm 0.00 in/hr0.0 mm/hr 0.00 in0.0 mm
03:40 AM 70.9°F21.6°C 56.3°F13.5°C 60% 1.9 mph SE3.1 kmh SE 3.8 mph6.1 kmh 29.84 in1010.5 mb 0.00 in0.0 mm 0.00 in/hr0.0 mm/hr 0.00 in0.0 mm
03:45 AM 70.7°F21.5°C 56.2°F13.4°C 60% 0.4 mph SSE0.6 kmh SSE 2.2 mph3.5 kmh 29.85 in1010.8 mb 0.00 in0.0 mm 0.00 in/hr0.0 mm/hr 0.00 in0.0 mm
03:50 AM 70.7°F21.5°C 56.2°F13.4°C 60% Calm Calm -- 29.86 in1011.2 mb 0.00 in0.0 mm 0.00 in/hr0.0 mm/hr 0.00 in0.0 mm
03:55 AM 70.5°F21.4°C 56.0°F13.3°C 60% 0.1 mph E0.2 kmh E 1.6 mph2.6 kmh 29.85 in1010.8 mb 0.00 in0.0 mm 0.00 in/hr0.0 mm/hr 0.00 in0.0 mm
04:00 AM 70.5°F21.4°C 56.0°F13.3°C 60% 1.2 mph ESE1.9 kmh ESE 3.1 mph5.0 kmh 29.85 in1010.8 mb 0.00 in0.0 mm 0.00 in/hr0.0 mm/hr 0.00 in0.0 mm
04:05 AM 70.7°F21.5°C 56.6°F13.7°C 61% 2.2 mph SE3.5 kmh SE 3.1 mph5.0 kmh 29.85 in1010.8 mb 0.00 in0.0 mm 0.00 in/hr0.0 mm/hr 0.00 in0.0 mm
04:10 AM 70.5°F21.4°C 56.4°F13.6°C 61% 1.9 mph SSE3.1 kmh SSE 3.1 mph5.0 kmh 29.86 in1011.2 mb 0.00 in0.0 mm 0.00 in/hr0.0 mm/hr 0.00 in0.0 mm
04:15 AM 70.3°F21.3°C 56.3°F13.5°C 61% 1.8 mph S2.9 kmh S 2.2 mph3.5 kmh 29.85 in1010.8 mb 0.00 in0.0 mm 0.00 in/hr0.0 mm/hr 0.00 in0.0 mm
04:20 AM 70.0°F21.1°C 55.9°F13.3°C 61% 1.4 mph S2.3 kmh S 2.2 mph3.5 kmh 29.86 in1011.2 mb 0.00 in0.0 mm 0.00 in/hr0.0 mm/hr 0.00 in0.0 mm
04:25 AM 70.0°F21.1°C 55.9°F13.3°C 61% 1.1 mph S1.8 kmh S 1.6 mph2.6 kmh 29.86 in1011.2 mb 0.00 in0.0 mm 0.00 in/hr0.0 mm/hr 0.00 in0.0 mm
04:30 AM 69.8°F21.0°C 56.2°F13.4°C 62% 0.9 mph S1.4 kmh S 1.6 mph2.6 kmh 29.86 in1011.2 mb 0.00 in0.0 mm 0.00 in/hr0.0 mm/hr 0.00 in0.0 mm
04:35 AM 70.0°F21.1°C 56.4°F13.6°C 62% 0.8 mph ESE1.3 kmh ESE 2.2 mph3.5 kmh 29.86 in1011.2 mb 0.00 in0.0 mm 0.00 in/hr0.0 mm/hr 0.00 in0.0 mm
04:40 AM 70.0°F21.1°C 56.8°F13.8°C 63% 1.6 mph ESE2.6 kmh ESE 2.2 mph3.5 kmh 29.87 in1011.5 mb 0.00 in0.0 mm 0.00 in/hr0.0 mm/hr 0.00 in0.0 mm
04:45 AM 70.0°F21.1°C 56.4°F13.6°C 62% 1.5 mph SE2.4 kmh SE 2.2 mph3.5 kmh 29.87 in1011.5 mb 0.00 in0.0 mm 0.00 in/hr0.0 mm/hr 0.00 in0.0 mm
04:50 AM 69.6°F20.9°C 56.5°F13.6°C 63% 1.1 mph S1.8 kmh S 2.2 mph3.5 kmh 29.87 in1011.5 mb 0.00 in0.0 mm 0.00 in/hr0.0 mm/hr 0.00 in0.0 mm
04:55 AM 69.6°F20.9°C 56.5°F13.6°C 63% 1.5 mph S2.4 kmh S 3.1 mph5.0 kmh 29.87 in1011.5 mb 0.00 in0.0 mm 0.00 in/hr0.0 mm/hr 0.00 in0.0 mm
05:00 AM 69.6°F20.9°C 56.9°F13.8°C 64% 2.2 mph S3.5 kmh S 3.8 mph6.1 kmh 29.88 in1011.9 mb 0.00 in0.0 mm 0.00 in/hr0.0 mm/hr 0.00 in0.0 mm
05:05 AM 69.1°F20.6°C 56.4°F13.6°C 64% 2.1 mph SSE3.4 kmh SSE 3.8 mph6.1 kmh 29.88 in1011.9 mb 0.00 in0.0 mm 0.00 in/hr0.0 mm/hr 0.00 in0.0 mm
05:10 AM 69.1°F20.6°C 56.4°F13.6°C 64% 1.6 mph SSE2.6 kmh SSE 3.1 mph5.0 kmh 29.88 in1011.9 mb 0.00 in0.0 mm 0.00 in/hr0.0 mm/hr 0.00 in0.0 mm
05:15 AM 69.1°F20.6°C 56.8°F13.8°C 65% 1.4 mph S2.3 kmh S 3.1 mph5.0 kmh 29.87 in1011.5 mb 0.00 in0.0 mm 0.00 in/hr0.0 mm/hr 0.00 in0.0 mm
05:20 AM 68.9°F20.5°C 56.7°F13.7°C 65% 2.2 mph SSE3.5 kmh SSE 4.5 mph7.2 kmh 29.87 in1011.5 mb 0.00 in0.0 mm 0.00 in/hr0.0 mm/hr 0.00 in0.0 mm
05:25 AM 69.1°F20.6°C 57.3°F14.1°C 66% 3.1 mph SE5.0 kmh SE 4.5 mph7.2 kmh 29.87 in1011.5 mb 0.00 in0.0 mm 0.00 in/hr0.0 mm/hr 0.00 in0.0 mm
05:30 AM 69.3°F20.7°C 57.4°F14.1°C 66% 2.7 mph SSE4.3 kmh SSE 3.8 mph6.1 kmh 29.88 in1011.9 mb 0.00 in0.0 mm 0.00 in/hr0.0 mm/hr 0.00 in0.0 mm
05:35 AM 69.3°F20.7°C 57.4°F14.1°C 66% 2.1 mph SE3.4 kmh SE 3.1 mph5.0 kmh 29.88 in1011.9 mb 0.00 in0.0 mm 0.00 in/hr0.0 mm/hr 0.00 in0.0 mm
05:40 AM 69.3°F20.7°C 57.4°F14.1°C 66% 2.2 mph SE3.5 kmh SE 3.1 mph5.0 kmh 29.88 in1011.9 mb 0.00 in0.0 mm 0.00 in/hr0.0 mm/hr 0.00 in0.0 mm
05:45 AM 69.3°F20.7°C 57.4°F14.1°C 66% 2.2 mph SSE3.5 kmh SSE 3.1 mph5.0 kmh 29.88 in1011.9 mb 0.00 in0.0 mm 0.00 in/hr0.0 mm/hr 0.00 in0.0 mm
05:50 AM 69.3°F20.7°C 57.4°F14.1°C 66% 1.7 mph S2.7 kmh S 2.2 mph3.5 kmh 29.88 in1011.9 mb 0.00 in0.0 mm 0.00 in/hr0.0 mm/hr 0.00 in0.0 mm
05:55 AM 69.3°F20.7°C 57.4°F14.1°C 66% 2.0 mph S3.2 kmh S 3.1 mph5.0 kmh 29.89 in1012.2 mb 0.00 in0.0 mm 0.00 in/hr0.0 mm/hr 0.00 in0.0 mm
06:00 AM 69.4°F20.8°C 57.6°F14.2°C 66% 2.5 mph S4.0 kmh S 3.8 mph6.1 kmh 29.89 in1012.2 mb 0.00 in0.0 mm 0.00 in/hr0.0 mm/hr 0.00 in0.0 mm
06:05 AM 69.4°F20.8°C 57.6°F14.2°C 66% 1.9 mph S3.1 kmh S 3.8 mph6.1 kmh 29.89 in1012.2 mb 0.00 in0.0 mm 0.00 in/hr0.0 mm/hr 0.00 in0.0 mm
06:10 AM 69.6°F20.9°C 58.2°F14.6°C 67% 2.1 mph SSE3.4 kmh SSE 3.8 mph6.1 kmh 29.89 in1012.2 mb 0.00 in0.0 mm 0.00 in/hr0.0 mm/hr 0.00 in0.0 mm
06:15 AM 69.6°F20.9°C 58.2°F14.6°C 67% 2.0 mph SSE3.2 kmh SSE 3.8 mph6.1 kmh 29.89 in1012.2 mb 0.00 in0.0 mm 0.00 in/hr0.0 mm/hr 0.00 in0.0 mm
06:20 AM 70.0°F21.1°C 58.5°F14.7°C 67% 1.9 mph S3.1 kmh S 3.8 mph6.1 kmh 29.89 in1012.2 mb 0.00 in0.0 mm 0.00 in/hr0.0 mm/hr 0.00 in0.0 mm
06:25 AM 70.2°F21.2°C 58.3°F14.6°C 66% 2.2 mph SSE3.5 kmh SSE 3.8 mph6.1 kmh 29.90 in1012.5 mb 0.00 in0.0 mm 0.00 in/hr0.0 mm/hr 0.00 in0.0 mm
06:30 AM 70.5°F21.4°C 58.6°F14.8°C 66% 2.1 mph S3.4 kmh S 3.1 mph5.0 kmh 29.90 in1012.5 mb 0.00 in0.0 mm 0.00 in/hr0.0 mm/hr 0.00 in0.0 mm
06:35 AM 71.1°F21.7°C 59.2°F15.1°C 66% 2.0 mph S3.2 kmh S 3.1 mph5.0 kmh 29.90 in1012.5 mb 0.00 in0.0 mm 0.00 in/hr0.0 mm/hr 0.00 in0.0 mm
06:40 AM 71.4°F21.9°C 59.1°F15.1°C 65% 2.2 mph SSE3.5 kmh SSE 3.8 mph6.1 kmh 29.90 in1012.5 mb 0.00 in0.0 mm 0.00 in/hr0.0 mm/hr 0.00 in0.0 mm
06:45 AM 72.0°F22.2°C 59.6°F15.3°C 65% 2.8 mph SSE4.5 kmh SSE 3.8 mph6.1 kmh 29.89 in1012.2 mb 0.00 in0.0 mm 0.00 in/hr0.0 mm/hr 0.00 in0.0 mm
06:50 AM 72.5°F22.5°C 60.1°F15.6°C 65% 3.2 mph SSE5.1 kmh SSE 3.8 mph6.1 kmh 29.90 in1012.5 mb 0.00 in0.0 mm 0.00 in/hr0.0 mm/hr 0.00 in0.0 mm
06:55 AM 73.0°F22.8°C 60.2°F15.7°C 64% 3.0 mph S4.8 kmh S 3.8 mph6.1 kmh 29.90 in1012.5 mb 0.00 in0.0 mm 0.00 in/hr0.0 mm/hr 0.00 in0.0 mm
07:00 AM 73.4°F23.0°C 60.5°F15.8°C 64% 2.5 mph S4.0 kmh S 3.1 mph5.0 kmh 29.90 in1012.5 mb 0.00 in0.0 mm 0.00 in/hr0.0 mm/hr 0.00 in0.0 mm
07:05 AM 73.8°F23.2°C 60.9°F16.1°C 64% 2.0 mph S3.2 kmh S 2.2 mph3.5 kmh 29.90 in1012.5 mb 0.00 in0.0 mm 0.00 in/hr0.0 mm/hr 0.00 in0.0 mm
07:10 AM 74.5°F23.6°C 61.1°F16.2°C 63% 2.0 mph SE3.2 kmh SE 3.1 mph5.0 kmh 29.89 in1012.2 mb 0.00 in0.0 mm 0.00 in/hr0.0 mm/hr 0.00 in0.0 mm
07:15 AM 74.7°F23.7°C 60.8°F16.0°C 62% 2.4 mph E3.9 kmh E 3.8 mph6.1 kmh 29.89 in1012.2 mb 0.00 in0.0 mm 0.00 in/hr0.0 mm/hr 0.00 in0.0 mm
07:20 AM 74.7°F23.7°C 60.8°F16.0°C 62% 2.8 mph NNE4.5 kmh NNE 3.8 mph6.1 kmh 29.90 in1012.5 mb 0.00 in0.0 mm 0.00 in/hr0.0 mm/hr 0.00 in0.0 mm
07:25 AM 75.2°F24.0°C 60.9°F16.1°C 61% 2.8 mph NW4.5 kmh NW 3.8 mph6.1 kmh 29.92 in1013.2 mb 0.00 in0.0 mm 0.00 in/hr0.0 mm/hr 0.00 in0.0 mm
07:30 AM 75.4°F24.1°C 61.0°F16.1°C 61% 2.5 mph NW4.0 kmh NW 3.8 mph6.1 kmh 29.92 in1013.2 mb 0.00 in0.0 mm 0.00 in/hr0.0 mm/hr 0.00 in0.0 mm
07:35 AM 75.4°F24.1°C 61.0°F16.1°C 61% 3.0 mph NW4.8 kmh NW 6.9 mph11.1 kmh 29.91 in1012.9 mb 0.00 in0.0 mm 0.00 in/hr0.0 mm/hr 0.00 in0.0 mm
07:40 AM 75.4°F24.1°C 61.0°F16.1°C 61% 4.5 mph N7.2 kmh N 6.9 mph11.1 kmh 29.91 in1012.9 mb 0.00 in0.0 mm 0.00 in/hr0.0 mm/hr 0.00 in0.0 mm
07:45 AM 75.6°F24.2°C 61.2°F16.2°C 61% 5.2 mph N8.4 kmh N 6.9 mph11.1 kmh 29.90 in1012.5 mb 0.00 in0.0 mm 0.00 in/hr0.0 mm/hr 0.00 in0.0 mm
07:50 AM 75.7°F24.3°C 60.9°F16.1°C 60% 6.8 mph N10.9 kmh N 11.4 mph18.3 kmh 29.91 in1012.9 mb 0.00 in0.0 mm 0.00 in/hr0.0 mm/hr 0.00 in0.0 mm
07:55 AM 76.1°F24.5°C 61.2°F16.2°C 60% 7.3 mph N11.7 kmh N 11.4 mph18.3 kmh 29.90 in1012.5 mb 0.00 in0.0 mm 0.00 in/hr0.0 mm/hr 0.00 in0.0 mm
08:00 AM 76.3°F24.6°C 61.4°F16.3°C 60% 5.3 mph N8.5 kmh N 7.6 mph12.2 kmh 29.90 in1012.5 mb 0.00 in0.0 mm 0.00 in/hr0.0 mm/hr 0.00 in0.0 mm
08:05 AM 76.3°F24.6°C 61.4°F16.3°C 60% 4.9 mph NNW7.9 kmh NNW 9.2 mph14.8 kmh 29.90 in1012.5 mb 0.00 in0.0 mm 0.00 in/hr0.0 mm/hr 0.00 in0.0 mm
08:10 AM 76.3°F24.6°C 61.4°F16.3°C 60% 5.3 mph NNW8.5 kmh NNW 9.8 mph15.8 kmh 29.90 in1012.5 mb 0.00 in0.0 mm 0.00 in/hr0.0 mm/hr 0.00 in0.0 mm
08:15 AM 76.3°F24.6°C 61.4°F16.3°C 60% 6.7 mph N10.8 kmh N 11.4 mph18.3 kmh 29.90 in1012.5 mb 0.00 in0.0 mm 0.00 in/hr0.0 mm/hr 0.00 in0.0 mm
08:20 AM 76.8°F24.9°C 61.9°F16.6°C 60% 6.7 mph N10.8 kmh N 11.4 mph18.3 kmh 29.90 in1012.5 mb 0.00 in0.0 mm 0.00 in/hr0.0 mm/hr 0.00 in0.0 mm
08:25 AM 77.5°F25.3°C 62.1°F16.7°C 59% 6.2 mph NNW10.0 kmh NNW 8.3 mph13.4 kmh 29.89 in1012.2 mb 0.00 in0.0 mm 0.00 in/hr0.0 mm/hr 0.00 in0.0 mm
08:30 AM 77.7°F25.4°C 62.3°F16.8°C 59% 7.2 mph NW11.6 kmh NW 9.8 mph15.8 kmh 29.90 in1012.5 mb 0.00 in0.0 mm 0.00 in/hr0.0 mm/hr 0.00 in0.0 mm
08:35 AM 77.7°F25.4°C 61.8°F16.6°C 58% 7.8 mph NW12.6 kmh NW 14.5 mph23.3 kmh 29.90 in1012.5 mb 0.00 in0.0 mm 0.00 in/hr0.0 mm/hr 0.00 in0.0 mm
08:40 AM 77.4°F25.2°C 61.5°F16.4°C 58% 10.2 mph NNW16.4 kmh NNW 14.5 mph23.3 kmh 29.89 in1012.2 mb 0.00 in0.0 mm 0.00 in/hr0.0 mm/hr 0.00 in0.0 mm
08:45 AM 77.2°F25.1°C 61.3°F16.3°C 58% 10.9 mph NNW17.5 kmh NNW 14.5 mph23.3 kmh 29.89 in1012.2 mb 0.00 in0.0 mm 0.00 in/hr0.0 mm/hr 0.00 in0.0 mm
08:50 AM 77.2°F25.1°C 61.8°F16.6°C 59% 11.7 mph NNW18.8 kmh NNW 19.7 mph31.7 kmh 29.88 in1011.9 mb 0.00 in0.0 mm 0.00 in/hr0.0 mm/hr 0.00 in0.0 mm
08:55 AM 77.0°F25.0°C 61.6°F16.4°C 59% 12.4 mph NNW20.0 kmh NNW 19.7 mph31.7 kmh 29.89 in1012.2 mb 0.00 in0.0 mm 0.00 in/hr0.0 mm/hr 0.00 in0.0 mm
09:00 AM 77.0°F25.0°C 61.6°F16.4°C 59% 12.1 mph NW19.5 kmh NW 18.3 mph29.5 kmh 29.88 in1011.9 mb 0.00 in0.0 mm 0.00 in/hr0.0 mm/hr 0.00 in0.0 mm
09:05 AM 77.0°F25.0°C 61.6°F16.4°C 59% 12.3 mph NW19.8 kmh NW 18.3 mph29.5 kmh 29.88 in1011.9 mb 0.00 in0.0 mm 0.00 in/hr0.0 mm/hr 0.00 in0.0 mm
09:10 AM 76.8°F24.9°C 61.4°F16.3°C 59% 11.9 mph NW19.2 kmh NW 17.4 mph28.0 kmh 29.89 in1012.2 mb 0.00 in0.0 mm 0.00 in/hr0.0 mm/hr 0.00 in0.0 mm
09:15 AM 77.0°F25.0°C 61.6°F16.4°C 59% 11.2 mph NW18.0 kmh NW 17.4 mph28.0 kmh 29.89 in1012.2 mb 0.00 in0.0 mm 0.00 in/hr0.0 mm/hr 0.00 in0.0 mm
09:20 AM 76.8°F24.9°C 61.4°F16.3°C 59% 12.6 mph NW20.3 kmh NW 20.6 mph33.2 kmh 29.88 in1011.9 mb 0.00 in0.0 mm 0.00 in/hr0.0 mm/hr 0.00 in0.0 mm
09:25 AM 76.8°F24.9°C 61.9°F16.6°C 60% 13.2 mph NW21.2 kmh NW 20.6 mph33.2 kmh 29.88 in1011.9 mb 0.00 in0.0 mm 0.00 in/hr0.0 mm/hr 0.00 in0.0 mm
09:30 AM 76.5°F24.7°C 62.1°F16.7°C 61% 12.7 mph NW20.4 kmh NW 17.4 mph28.0 kmh 29.88 in1011.9 mb 0.00 in0.0 mm 0.00 in/hr0.0 mm/hr 0.00 in0.0 mm
09:35 AM 76.1°F24.5°C 61.7°F16.5°C 61% 16.8 mph NW27.0 kmh NW 29.8 mph48.0 kmh 29.88 in1011.9 mb 0.00 in0.0 mm 0.00 in/hr0.0 mm/hr 0.00 in0.0 mm
09:40 AM 75.7°F24.3°C 62.3°F16.8°C 63% 18.9 mph NW30.4 kmh NW 29.8 mph48.0 kmh 29.89 in1012.2 mb 0.00 in0.0 mm 0.00 in/hr0.0 mm/hr 0.00 in0.0 mm
09:45 AM 75.4°F24.1°C 62.4°F16.9°C 64% 17.4 mph NW28.0 kmh NW 29.8 mph48.0 kmh 29.89 in1012.2 mb 0.00 in0.0 mm 0.00 in/hr0.0 mm/hr 0.00 in0.0 mm
09:50 AM 74.8°F23.8°C 63.2°F17.3°C 67% 15.1 mph NW24.3 kmh NW 18.3 mph29.5 kmh 29.89 in1012.2 mb 0.00 in0.0 mm 0.00 in/hr0.0 mm/hr 0.00 in0.0 mm
09:55 AM 74.3°F23.5°C 63.1°F17.3°C 68% 15.7 mph NW25.3 kmh NW 23.5 mph37.8 kmh 29.89 in1012.2 mb 0.00 in0.0 mm 0.00 in/hr0.0 mm/hr 0.00 in0.0 mm
10:00 AM 73.8°F23.2°C 63.4°F17.4°C 70% 15.8 mph NW25.4 kmh NW 23.5 mph37.8 kmh 29.89 in1012.2 mb 0.00 in0.0 mm 0.00 in/hr0.0 mm/hr 0.00 in0.0 mm
10:05 AM 73.4°F23.0°C 63.1°F17.3°C 70% 13.6 mph NW21.9 kmh NW 20.6 mph33.2 kmh 29.89 in1012.2 mb 0.00 in0.0 mm 0.00 in/hr0.0 mm/hr 0.00 in0.0 mm
10:10 AM 73.0°F22.8°C 63.1°F17.3°C 71% 12.7 mph WNW20.4 kmh WNW 16.8 mph27.0 kmh 29.89 in1012.2 mb 0.00 in0.0 mm 0.00 in/hr0.0 mm/hr 0.00 in0.0 mm
10:15 AM 72.7°F22.6°C 63.2°F17.3°C 72% 12.3 mph NW19.8 kmh NW 14.5 mph23.3 kmh 29.89 in1012.2 mb 0.00 in0.0 mm 0.00 in/hr0.0 mm/hr 0.00 in0.0 mm
10:20 AM 72.1°F22.3°C 63.4°F17.4°C 74% 11.2 mph NW18.0 kmh NW 14.5 mph23.3 kmh 29.89 in1012.2 mb 0.00 in0.0 mm 0.00 in/hr0.0 mm/hr 0.00 in0.0 mm
10:25 AM 71.6°F22.0°C 63.3°F17.4°C 75% 8.9 mph NW14.3 kmh NW 13.6 mph21.9 kmh 29.90 in1012.5 mb 0.00 in0.0 mm 0.00 in/hr0.0 mm/hr 0.00 in0.0 mm
10:30 AM 71.1°F21.7°C 63.5°F17.5°C 77% 7.8 mph NW12.6 kmh NW 14.5 mph23.3 kmh 29.90 in1012.5 mb 0.01 in0.3 mm 0.12 in/hr3.0 mm/hr 0.01 in0.3 mm
10:35 AM 70.5°F21.4°C 63.7°F17.6°C 79% 8.4 mph NW13.5 kmh NW 14.5 mph23.3 kmh 29.91 in1012.9 mb 0.01 in0.3 mm 0.00 in/hr0.0 mm/hr 0.01 in0.3 mm
10:40 AM 70.0°F21.1°C 63.6°F17.6°C 80% 9.1 mph WNW14.6 kmh WNW 14.5 mph23.3 kmh 29.91 in1012.9 mb 0.01 in0.3 mm 0.00 in/hr0.0 mm/hr 0.01 in0.3 mm
10:45 AM 69.4°F20.8°C 63.7°F17.6°C 82% 10.7 mph WNW17.2 kmh WNW 17.4 mph28.0 kmh 29.90 in1012.5 mb 0.02 in0.5 mm 0.12 in/hr3.0 mm/hr 0.02 in0.5 mm
10:50 AM 69.1°F20.6°C 63.7°F17.6°C 83% 11.3 mph NW18.2 kmh NW 17.4 mph28.0 kmh 29.90 in1012.5 mb 0.02 in0.5 mm 0.00 in/hr0.0 mm/hr 0.02 in0.5 mm
10:55 AM 68.7°F20.4°C 63.4°F17.4°C 83% 10.1 mph NW16.3 kmh NW 12.1 mph19.5 kmh 29.89 in1012.2 mb 0.04 in1.0 mm 0.24 in/hr6.1 mm/hr 0.04 in1.0 mm
11:00 AM 68.5°F20.3°C 63.5°F17.5°C 84% 8.6 mph NW13.8 kmh NW 12.1 mph19.5 kmh 29.89 in1012.2 mb 0.04 in1.0 mm 0.00 in/hr0.0 mm/hr 0.04 in1.0 mm
11:05 AM 68.4°F20.2°C 63.7°F17.6°C 85% 7.0 mph NW11.3 kmh NW 11.4 mph18.3 kmh 29.89 in1012.2 mb 0.05 in1.3 mm 0.12 in/hr3.0 mm/hr 0.05 in1.3 mm
11:10 AM 68.4°F20.2°C 64.0°F17.8°C 86% 5.7 mph NW9.2 kmh NW 8.3 mph13.4 kmh 29.88 in1011.9 mb 0.05 in1.3 mm 0.00 in/hr0.0 mm/hr 0.05 in1.3 mm
11:15 AM 68.5°F20.3°C 64.5°F18.1°C 87% 4.8 mph NNW7.7 kmh NNW 6.0 mph9.7 kmh 29.88 in1011.9 mb 0.06 in1.5 mm 0.12 in/hr3.0 mm/hr 0.06 in1.5 mm
11:20 AM 68.7°F20.4°C 64.7°F18.2°C 87% 4.3 mph N6.9 kmh N 6.0 mph9.7 kmh 29.87 in1011.5 mb 0.06 in1.5 mm 0.00 in/hr0.0 mm/hr 0.06 in1.5 mm
11:25 AM 68.7°F20.4°C 64.7°F18.2°C 87% 4.5 mph N7.2 kmh N 8.3 mph13.4 kmh 29.86 in1011.2 mb 0.06 in1.5 mm 0.00 in/hr0.0 mm/hr 0.06 in1.5 mm
11:30 AM 68.7°F20.4°C 65.1°F18.4°C 88% 4.2 mph N6.8 kmh N 8.3 mph13.4 kmh 29.86 in1011.2 mb 0.05 in1.3 mm 0.00 in/hr0.0 mm/hr 0.06 in1.5 mm
11:35 AM 68.5°F20.3°C 65.2°F18.4°C 89% 3.5 mph NNE5.6 kmh NNE 5.4 mph8.7 kmh 29.85 in1010.8 mb 0.06 in1.5 mm 0.12 in/hr3.0 mm/hr 0.07 in1.8 mm
11:40 AM 68.2°F20.1°C 64.8°F18.2°C 89% 4.3 mph NE6.9 kmh NE 6.9 mph11.1 kmh 29.84 in1010.5 mb 0.06 in1.5 mm 0.00 in/hr0.0 mm/hr 0.07 in1.8 mm
11:45 AM 68.0°F20.0°C 65.0°F18.3°C 90% 5.2 mph NNE8.4 kmh NNE 8.3 mph13.4 kmh 29.82 in1009.8 mb 0.05 in1.3 mm 0.00 in/hr0.0 mm/hr 0.07 in1.8 mm
11:50 AM 68.2°F20.1°C 65.2°F18.4°C 90% 5.6 mph NE9.0 kmh NE 8.3 mph13.4 kmh 29.84 in1010.5 mb 0.05 in1.3 mm 0.00 in/hr0.0 mm/hr 0.07 in1.8 mm
11:55 AM 68.2°F20.1°C 64.8°F18.2°C 89% 5.6 mph NE9.0 kmh NE 12.1 mph19.5 kmh 29.83 in1010.2 mb 0.04 in1.0 mm 0.00 in/hr0.0 mm/hr 0.07 in1.8 mm
12:00 PM 68.0°F20.0°C 64.7°F18.2°C 89% 6.2 mph NE10.0 kmh NE 12.1 mph19.5 kmh 29.83 in1010.2 mb 0.02 in0.5 mm 0.00 in/hr0.0 mm/hr 0.07 in1.8 mm
12:05 PM 68.0°F20.0°C 64.7°F18.2°C 89% 5.9 mph NE9.5 kmh NE 12.1 mph19.5 kmh 29.84 in1010.5 mb 0.02 in0.5 mm 0.00 in/hr0.0 mm/hr 0.07 in1.8 mm
12:10 PM 68.0°F20.0°C 65.0°F18.3°C 90% 4.5 mph ENE7.2 kmh ENE 9.2 mph14.8 kmh 29.84 in1010.5 mb 0.02 in0.5 mm 0.00 in/hr0.0 mm/hr 0.07 in1.8 mm
12:15 PM 68.0°F20.0°C 64.7°F18.2°C 89% 3.8 mph NE6.1 kmh NE 5.4 mph8.7 kmh 29.84 in1010.5 mb 0.01 in0.3 mm 0.00 in/hr0.0 mm/hr 0.07 in1.8 mm
12:20 PM 68.0°F20.0°C 64.7°F18.2°C 89% 3.7 mph N6.0 kmh N 6.0 mph9.7 kmh 29.84 in1010.5 mb 0.01 in0.3 mm 0.00 in/hr0.0 mm/hr 0.07 in1.8 mm
12:25 PM 67.8°F19.9°C 64.5°F18.1°C 89% 4.5 mph NW7.2 kmh NW 6.0 mph9.7 kmh 29.84 in1010.5 mb 0.01 in0.3 mm 0.00 in/hr0.0 mm/hr 0.07 in1.8 mm
12:30 PM 67.8°F19.9°C 64.5°F18.1°C 89% 4.7 mph NNW7.6 kmh NNW 6.0 mph9.7 kmh 29.84 in1010.5 mb 0.01 in0.3 mm 0.00 in/hr0.0 mm/hr 0.07 in1.8 mm
12:35 PM 68.0°F20.0°C 64.7°F18.2°C 89% 3.2 mph N5.1 kmh N 6.0 mph9.7 kmh 29.83 in1010.2 mb 0.00 in0.0 mm 0.00 in/hr0.0 mm/hr 0.07 in1.8 mm
12:40 PM 68.2°F20.1°C 64.8°F18.2°C 89% 2.1 mph ENE3.4 kmh ENE 3.1 mph5.0 kmh 29.83 in1010.2 mb 0.01 in0.3 mm 0.12 in/hr3.0 mm/hr 0.08 in2.0 mm
12:45 PM 68.5°F20.3°C 64.9°F18.3°C 88% 2.1 mph NNE3.4 kmh NNE 4.5 mph7.2 kmh 29.84 in1010.5 mb 0.01 in0.3 mm 0.00 in/hr0.0 mm/hr 0.08 in2.0 mm
12:50 PM 69.1°F20.6°C 65.4°F18.6°C 88% 1.6 mph N2.6 kmh N 4.5 mph7.2 kmh 29.83 in1010.2 mb 0.01 in0.3 mm 0.00 in/hr0.0 mm/hr 0.08 in2.0 mm
12:55 PM 69.4°F20.8°C 65.8°F18.8°C 88% 1.1 mph ESE1.8 kmh ESE 2.2 mph3.5 kmh 29.83 in1010.2 mb 0.01 in0.3 mm 0.00 in/hr0.0 mm/hr 0.08 in2.0 mm
01:00 PM 69.6°F20.9°C 65.9°F18.8°C 88% 1.1 mph SE1.8 kmh SE 1.6 mph2.6 kmh 29.83 in1010.2 mb 0.01 in0.3 mm 0.00 in/hr0.0 mm/hr 0.08 in2.0 mm
01:05 PM 70.2°F21.2°C 66.5°F19.2°C 88% 1.5 mph S2.4 kmh S 3.1 mph5.0 kmh 29.83 in1010.2 mb 0.01 in0.3 mm 0.00 in/hr0.0 mm/hr 0.08 in2.0 mm
01:10 PM 70.7°F21.5°C 67.0°F19.4°C 88% 1.9 mph S3.1 kmh S 3.1 mph5.0 kmh 29.82 in1009.8 mb 0.01 in0.3 mm 0.00 in/hr0.0 mm/hr 0.08 in2.0 mm
01:15 PM 71.2°F21.8°C 67.2°F19.6°C 87% 1.8 mph S2.9 kmh S 3.1 mph5.0 kmh 29.82 in1009.8 mb 0.01 in0.3 mm 0.00 in/hr0.0 mm/hr 0.08 in2.0 mm
01:20 PM 71.6°F22.0°C 67.2°F19.6°C 86% 2.3 mph SE3.7 kmh SE 4.5 mph7.2 kmh 29.82 in1009.8 mb 0.01 in0.3 mm 0.00 in/hr0.0 mm/hr 0.08 in2.0 mm
01:25 PM 71.8°F22.1°C 67.1°F19.5°C 85% 3.0 mph E4.8 kmh E 4.5 mph7.2 kmh 29.81 in1009.5 mb 0.01 in0.3 mm 0.00 in/hr0.0 mm/hr 0.08 in2.0 mm
01:30 PM 72.3°F22.4°C 67.3°F19.6°C 84% 3.6 mph E5.8 kmh E 6.9 mph11.1 kmh 29.81 in1009.5 mb 0.01 in0.3 mm 0.00 in/hr0.0 mm/hr 0.08 in2.0 mm
01:35 PM 72.5°F22.5°C 67.1°F19.5°C 83% 4.0 mph E6.4 kmh E 6.9 mph11.1 kmh 29.80 in1009.1 mb 0.01 in0.3 mm 0.00 in/hr0.0 mm/hr 0.08 in2.0 mm
01:40 PM 72.7°F22.6°C 67.3°F19.6°C 83% 3.8 mph ENE6.1 kmh ENE 6.0 mph9.7 kmh 29.80 in1009.1 mb 0.00 in0.0 mm 0.00 in/hr0.0 mm/hr 0.08 in2.0 mm
01:45 PM 73.6°F23.1°C 68.1°F20.1°C 83% 4.2 mph E6.8 kmh E 5.4 mph8.7 kmh 29.81 in1009.5 mb 0.00 in0.0 mm 0.00 in/hr0.0 mm/hr 0.08 in2.0 mm
01:50 PM 74.5°F23.6°C 68.3°F20.2°C 81% 4.7 mph E7.6 kmh E 6.9 mph11.1 kmh 29.80 in1009.1 mb 0.00 in0.0 mm 0.00 in/hr0.0 mm/hr 0.08 in2.0 mm
01:55 PM 75.0°F23.9°C 68.5°F20.3°C 80% 5.3 mph E8.5 kmh E 7.6 mph12.2 kmh 29.80 in1009.1 mb 0.00 in0.0 mm 0.00 in/hr0.0 mm/hr 0.08 in2.0 mm
02:00 PM 74.8°F23.8°C 67.6°F19.8°C 78% 6.1 mph E9.8 kmh E 7.6 mph12.2 kmh 29.79 in1008.8 mb 0.00 in0.0 mm 0.00 in/hr0.0 mm/hr 0.08 in2.0 mm
02:05 PM 75.0°F23.9°C 68.1°F20.1°C 79% 6.0 mph E9.7 kmh E 7.6 mph12.2 kmh 29.79 in1008.8 mb 0.00 in0.0 mm 0.00 in/hr0.0 mm/hr 0.08 in2.0 mm
02:10 PM 75.4°F24.1°C 68.1°F20.1°C 78% 5.2 mph ENE8.4 kmh ENE 8.3 mph13.4 kmh 29.78 in1008.5 mb 0.00 in0.0 mm 0.00 in/hr0.0 mm/hr 0.08 in2.0 mm
02:15 PM 75.4°F24.1°C 67.7°F19.8°C 77% 5.8 mph ENE9.3 kmh ENE 8.3 mph13.4 kmh 29.78 in1008.5 mb 0.00 in0.0 mm 0.00 in/hr0.0 mm/hr 0.08 in2.0 mm
02:20 PM 75.7°F24.3°C 68.4°F20.2°C 78% 6.2 mph ENE10.0 kmh ENE 9.2 mph14.8 kmh 29.78 in1008.5 mb 0.00 in0.0 mm 0.00 in/hr0.0 mm/hr 0.08 in2.0 mm
02:25 PM 75.6°F24.2°C 68.3°F20.2°C 78% 5.8 mph NE9.3 kmh NE 9.2 mph14.8 kmh 29.77 in1008.1 mb 0.00 in0.0 mm 0.00 in/hr0.0 mm/hr 0.08 in2.0 mm
02:30 PM 75.7°F24.3°C 68.1°F20.1°C 77% 6.3 mph ENE10.1 kmh ENE 12.1 mph19.5 kmh 29.77 in1008.1 mb 0.00 in0.0 mm 0.00 in/hr0.0 mm/hr 0.08 in2.0 mm
02:35 PM 75.4°F24.1°C 67.7°F19.8°C 77% 7.2 mph E11.6 kmh E 12.1 mph19.5 kmh 29.77 in1008.1 mb 0.00 in0.0 mm 0.00 in/hr0.0 mm/hr 0.08 in2.0 mm
02:40 PM 75.0°F23.9°C 67.4°F19.7°C 77% 7.3 mph E11.7 kmh E 10.7 mph17.2 kmh 29.77 in1008.1 mb 0.00 in0.0 mm 0.00 in/hr0.0 mm/hr 0.08 in2.0 mm
02:45 PM 75.4°F24.1°C 67.7°F19.8°C 77% 6.0 mph E9.7 kmh E 9.8 mph15.8 kmh 29.76 in1007.8 mb 0.00 in0.0 mm 0.00 in/hr0.0 mm/hr 0.08 in2.0 mm
02:50 PM 75.4°F24.1°C 67.3°F19.6°C 76% 5.6 mph NE9.0 kmh NE 8.3 mph13.4 kmh 29.76 in1007.8 mb 0.00 in0.0 mm 0.00 in/hr0.0 mm/hr 0.08 in2.0 mm
02:55 PM 75.4°F24.1°C 67.3°F19.6°C 76% 6.0 mph NE9.7 kmh NE 8.3 mph13.4 kmh 29.76 in1007.8 mb 0.00 in0.0 mm 0.00 in/hr0.0 mm/hr 0.08 in2.0 mm
03:00 PM 75.4°F24.1°C 67.3°F19.6°C 76% 5.8 mph NE9.3 kmh NE 7.6 mph12.2 kmh 29.75 in1007.5 mb 0.00 in0.0 mm 0.00 in/hr0.0 mm/hr 0.08 in2.0 mm
03:05 PM 75.6°F24.2°C 67.1°F19.5°C 75% 5.6 mph NNE9.0 kmh NNE 9.2 mph14.8 kmh 29.75 in1007.5 mb 0.00 in0.0 mm 0.00 in/hr0.0 mm/hr 0.08 in2.0 mm
03:10 PM 75.6°F24.2°C 67.5°F19.7°C 76% 5.6 mph NNE9.0 kmh NNE 9.2 mph14.8 kmh 29.75 in1007.5 mb 0.00 in0.0 mm 0.00 in/hr0.0 mm/hr 0.08 in2.0 mm
03:15 PM 75.4°F24.1°C 66.9°F19.4°C 75% 6.0 mph NNE9.7 kmh NNE 8.3 mph13.4 kmh 29.74 in1007.1 mb 0.00 in0.0 mm 0.00 in/hr0.0 mm/hr 0.08 in2.0 mm
03:20 PM 75.2°F24.0°C 66.8°F19.3°C 75% 5.9 mph NE9.5 kmh NE 7.6 mph12.2 kmh 29.73 in1006.8 mb 0.00 in0.0 mm 0.00 in/hr0.0 mm/hr 0.08 in2.0 mm
03:25 PM 75.0°F23.9°C 66.6°F19.2°C 75% 5.6 mph NE9.0 kmh NE 6.9 mph11.1 kmh 29.73 in1006.8 mb 0.00 in0.0 mm 0.00 in/hr0.0 mm/hr 0.08 in2.0 mm
03:30 PM 75.2°F24.0°C 67.2°F19.6°C 76% 5.4 mph NE8.7 kmh NE 7.6 mph12.2 kmh 29.73 in1006.8 mb 0.00 in0.0 mm 0.00 in/hr0.0 mm/hr 0.08 in2.0 mm
03:35 PM 75.6°F24.2°C 67.1°F19.5°C 75% 5.3 mph NE8.5 kmh NE 8.3 mph13.4 kmh 29.72 in1006.4 mb 0.00 in0.0 mm 0.00 in/hr0.0 mm/hr 0.08 in2.0 mm
03:40 PM 75.9°F24.4°C 67.9°F19.9°C 76% 5.1 mph ENE8.2 kmh ENE 8.3 mph13.4 kmh 29.73 in1006.8 mb 0.00 in0.0 mm 0.00 in/hr0.0 mm/hr 0.08 in2.0 mm
03:45 PM 76.3°F24.6°C 67.8°F19.9°C 75% 4.8 mph E7.7 kmh E 7.6 mph12.2 kmh 29.73 in1006.8 mb 0.00 in0.0 mm 0.00 in/hr0.0 mm/hr 0.08 in2.0 mm
03:50 PM 76.6°F24.8°C 67.4°F19.7°C 73% 4.1 mph ENE6.6 kmh ENE 7.6 mph12.2 kmh 29.73 in1006.8 mb 0.00 in0.0 mm 0.00 in/hr0.0 mm/hr 0.08 in2.0 mm
03:55 PM 76.3°F24.6°C 67.0°F19.4°C 73% 3.6 mph ENE5.8 kmh ENE 6.0 mph9.7 kmh 29.73 in1006.8 mb 0.00 in0.0 mm 0.00 in/hr0.0 mm/hr 0.08 in2.0 mm
04:00 PM 75.7°F24.3°C 66.5°F19.2°C 73% 3.5 mph ENE5.6 kmh ENE 6.0 mph9.7 kmh 29.73 in1006.8 mb 0.00 in0.0 mm 0.00 in/hr0.0 mm/hr 0.08 in2.0 mm
04:05 PM 76.1°F24.5°C 67.3°F19.6°C 74% 2.7 mph E4.3 kmh E 6.0 mph9.7 kmh 29.73 in1006.8 mb 0.00 in0.0 mm 0.00 in/hr0.0 mm/hr 0.08 in2.0 mm
04:10 PM 75.7°F24.3°C 66.9°F19.4°C 74% 2.5 mph ENE4.0 kmh ENE 3.8 mph6.1 kmh 29.73 in1006.8 mb 0.00 in0.0 mm 0.00 in/hr0.0 mm/hr 0.08 in2.0 mm
04:15 PM 75.4°F24.1°C 66.6°F19.2°C 74% 2.7 mph N4.3 kmh N 4.5 mph7.2 kmh 29.73 in1006.8 mb 0.00 in0.0 mm 0.00 in/hr0.0 mm/hr 0.08 in2.0 mm
04:20 PM 75.0°F23.9°C 66.6°F19.2°C 75% 3.0 mph N4.8 kmh N 4.5 mph7.2 kmh 29.74 in1007.1 mb 0.00 in0.0 mm 0.00 in/hr0.0 mm/hr 0.08 in2.0 mm
04:25 PM 74.8°F23.8°C 66.4°F19.1°C 75% 4.1 mph NW6.6 kmh NW 7.6 mph12.2 kmh 29.77 in1008.1 mb 0.00 in0.0 mm 0.00 in/hr0.0 mm/hr 0.08 in2.0 mm
04:30 PM 73.6°F23.1°C 64.8°F18.2°C 74% 8.8 mph NW14.2 kmh NW 22.1 mph35.6 kmh 29.81 in1009.5 mb 0.11 in2.8 mm 1.32 in/hr33.5 mm/hr 0.19 in4.8 mm
04:35 PM 69.1°F20.6°C 61.2°F16.2°C 76% 10.4 mph NW16.7 kmh NW 22.1 mph35.6 kmh 29.79 in1008.8 mb 0.19 in4.8 mm 0.96 in/hr24.4 mm/hr 0.27 in6.9 mm
04:40 PM 67.1°F19.5°C 60.4°F15.8°C 79% 6.3 mph W10.1 kmh W 11.4 mph18.3 kmh 29.77 in1008.1 mb 0.22 in5.6 mm 0.36 in/hr9.1 mm/hr 0.31 in7.9 mm
04:45 PM 65.8°F18.8°C 60.2°F15.7°C 82% 4.8 mph W7.7 kmh W 6.9 mph11.1 kmh 29.77 in1008.1 mb 0.27 in6.9 mm 0.60 in/hr15.2 mm/hr 0.35 in8.9 mm
04:50 PM 64.9°F18.3°C 60.3°F15.7°C 85% 4.4 mph W7.1 kmh W 6.0 mph9.7 kmh 29.78 in1008.5 mb 0.31 in7.9 mm 0.48 in/hr12.2 mm/hr 0.39 in9.9 mm
04:55 PM 64.8°F18.2°C 60.2°F15.7°C 85% 3.5 mph WNW5.6 kmh WNW 5.4 mph8.7 kmh 29.76 in1007.8 mb 0.32 in8.1 mm 0.12 in/hr3.0 mm/hr 0.40 in10.2 mm
05:00 PM 64.8°F18.2°C 60.5°F15.8°C 86% 2.6 mph WNW4.2 kmh WNW 4.5 mph7.2 kmh 29.76 in1007.8 mb 0.33 in8.4 mm 0.01 in/hr0.3 mm/hr 0.41 in10.4 mm
05:05 PM 65.1°F18.4°C 61.2°F16.2°C 87% 1.7 mph WSW2.7 kmh WSW 3.1 mph5.0 kmh 29.75 in1007.5 mb 0.33 in8.4 mm 0.00 in/hr0.0 mm/hr 0.41 in10.4 mm
05:10 PM 64.9°F18.3°C 61.0°F16.1°C 87% 1.2 mph SW1.9 kmh SW 2.2 mph3.5 kmh 29.75 in1007.5 mb 0.34 in8.6 mm 0.12 in/hr3.0 mm/hr 0.43 in10.9 mm
05:15 PM 65.3°F18.5°C 61.4°F16.3°C 87% 1.6 mph SW2.6 kmh SW 2.2 mph3.5 kmh 29.74 in1007.1 mb 0.35 in8.9 mm 0.12 in/hr3.0 mm/hr 0.44 in11.2 mm
05:20 PM 65.1°F18.4°C 61.5°F16.4°C 88% 2.1 mph S3.4 kmh S 3.1 mph5.0 kmh 29.75 in1007.5 mb 0.35 in8.9 mm 0.00 in/hr0.0 mm/hr 0.44 in11.2 mm
05:25 PM 64.9°F18.3°C 61.3°F16.3°C 88% 2.1 mph SE3.4 kmh SE 3.1 mph5.0 kmh 29.75 in1007.5 mb 0.37 in9.4 mm 0.24 in/hr6.1 mm/hr 0.45 in11.4 mm
05:30 PM 64.6°F18.1°C 61.3°F16.3°C 89% 2.6 mph ESE4.2 kmh ESE 4.5 mph7.2 kmh 29.75 in1007.5 mb 0.26 in6.6 mm 0.00 in/hr0.0 mm/hr 0.45 in11.4 mm
05:35 PM 64.6°F18.1°C 61.3°F16.3°C 89% 3.0 mph ESE4.8 kmh ESE 4.5 mph7.2 kmh 29.75 in1007.5 mb 0.18 in4.6 mm 0.00 in/hr0.0 mm/hr 0.46 in11.7 mm
05:40 PM 64.6°F18.1°C 61.3°F16.3°C 89% 3.3 mph SE5.3 kmh SE 3.8 mph6.1 kmh 29.74 in1007.1 mb 0.15 in3.8 mm 0.00 in/hr0.0 mm/hr 0.46 in11.7 mm
05:45 PM 64.6°F18.1°C 61.6°F16.4°C 90% 3.9 mph SE6.3 kmh SE 5.4 mph8.7 kmh 29.75 in1007.5 mb 0.11 in2.8 mm 0.00 in/hr0.0 mm/hr 0.46 in11.7 mm
05:50 PM 64.2°F17.9°C 61.2°F16.2°C 90% 3.6 mph SSE5.8 kmh SSE 5.4 mph8.7 kmh 29.76 in1007.8 mb 0.08 in2.0 mm 0.00 in/hr0.0 mm/hr 0.47 in11.9 mm
05:55 PM 64.0°F17.8°C 61.1°F16.2°C 90% 2.0 mph SSE3.2 kmh SSE 4.5 mph7.2 kmh 29.76 in1007.8 mb 0.07 in1.8 mm 0.00 in/hr0.0 mm/hr 0.47 in11.9 mm
06:00 PM 64.2°F17.9°C 61.2°F16.2°C 90% 1.8 mph SSE2.9 kmh SSE 3.1 mph5.0 kmh 29.76 in1007.8 mb 0.07 in1.8 mm 0.00 in/hr0.0 mm/hr 0.48 in12.2 mm
06:05 PM 64.2°F17.9°C 61.6°F16.4°C 91% 2.2 mph SSE3.5 kmh SSE 3.1 mph5.0 kmh 29.76 in1007.8 mb 0.07 in1.8 mm 0.00 in/hr0.0 mm/hr 0.48 in12.2 mm
06:10 PM 64.0°F17.8°C 61.1°F16.2°C 90% 2.3 mph SE3.7 kmh SE 3.1 mph5.0 kmh 29.77 in1008.1 mb 0.07 in1.8 mm 0.00 in/hr0.0 mm/hr 0.50 in12.7 mm
06:15 PM 64.0°F17.8°C 61.4°F16.3°C 91% 2.4 mph SE3.9 kmh SE 3.1 mph5.0 kmh 29.77 in1008.1 mb 0.07 in1.8 mm 0.00 in/hr0.0 mm/hr 0.51 in13.0 mm
06:20 PM 63.9°F17.7°C 61.2°F16.2°C 91% 2.2 mph SSE3.5 kmh SSE 4.5 mph7.2 kmh 29.77 in1008.1 mb 0.08 in2.0 mm 0.12 in/hr3.0 mm/hr 0.52 in13.2 mm
06:25 PM 63.5°F17.5°C 60.8°F16.0°C 91% 3.9 mph SE6.3 kmh SE 6.0 mph9.7 kmh 29.75 in1007.5 mb 0.09 in2.3 mm 0.12 in/hr3.0 mm/hr 0.54 in13.7 mm
06:30 PM 63.3°F17.4°C 60.7°F15.9°C 91% 5.3 mph SE8.5 kmh SE 6.0 mph9.7 kmh 29.75 in1007.5 mb 0.11 in2.8 mm 0.24 in/hr6.1 mm/hr 0.56 in14.2 mm
06:35 PM 63.0°F17.2°C 60.6°F15.9°C 92% 5.5 mph ESE8.9 kmh ESE 8.3 mph13.4 kmh 29.76 in1007.8 mb 0.09 in2.3 mm 0.00 in/hr0.0 mm/hr 0.56 in14.2 mm
06:40 PM 63.1°F17.3°C 60.8°F16.0°C 92% 4.7 mph SE7.6 kmh SE 8.3 mph13.4 kmh 29.76 in1007.8 mb 0.11 in2.8 mm 0.24 in/hr6.1 mm/hr 0.57 in14.5 mm
06:45 PM 63.1°F17.3°C 60.8°F16.0°C 92% 4.2 mph SE6.8 kmh SE 5.4 mph8.7 kmh 29.76 in1007.8 mb 0.11 in2.8 mm 0.00 in/hr0.0 mm/hr 0.57 in14.5 mm
06:50 PM 63.0°F17.2°C 60.6°F15.9°C 92% 4.9 mph SE7.9 kmh SE 6.0 mph9.7 kmh 29.77 in1008.1 mb 0.09 in2.3 mm 0.00 in/hr0.0 mm/hr 0.57 in14.5 mm
06:55 PM 62.8°F17.1°C 60.4°F15.8°C 92% 4.4 mph SSE7.1 kmh SSE 6.0 mph9.7 kmh 29.77 in1008.1 mb 0.09 in2.3 mm 0.00 in/hr0.0 mm/hr 0.57 in14.5 mm
07:00 PM 62.8°F17.1°C 60.7°F15.9°C 93% 3.4 mph SE5.5 kmh SE 4.5 mph7.2 kmh 29.78 in1008.5 mb 0.08 in2.0 mm 0.00 in/hr0.0 mm/hr 0.57 in14.5 mm
07:05 PM 63.0°F17.2°C 60.9°F16.1°C 93% 2.7 mph SSW4.3 kmh SSW 4.5 mph7.2 kmh 29.81 in1009.5 mb 0.08 in2.0 mm 0.00 in/hr0.0 mm/hr 0.57 in14.5 mm
07:10 PM 62.8°F17.1°C 60.7°F15.9°C 93% 2.4 mph WNW3.9 kmh WNW 3.1 mph5.0 kmh 29.80 in1009.1 mb 0.11 in2.8 mm 0.36 in/hr9.1 mm/hr 0.60 in15.2 mm
07:15 PM 63.1°F17.3°C 61.1°F16.2°C 93% 2.4 mph NW3.9 kmh NW 3.8 mph6.1 kmh 29.80 in1009.1 mb 0.11 in2.8 mm 0.00 in/hr0.0 mm/hr 0.61 in15.5 mm
07:25 PM 62.8°F17.1°C 60.7°F15.9°C 93% 1.7 mph ENE2.7 kmh ENE 3.8 mph6.1 kmh 29.79 in1008.8 mb 0.08 in2.0 mm 0.00 in/hr0.0 mm/hr 0.63 in16.0 mm
07:30 PM 62.8°F17.1°C 60.7°F15.9°C 93% 2.4 mph NE3.9 kmh NE 3.8 mph6.1 kmh 29.79 in1008.8 mb 0.07 in1.8 mm 0.00 in/hr0.0 mm/hr 0.63 in16.0 mm
07:35 PM 62.6°F17.0°C 60.6°F15.9°C 93% 2.4 mph NNE3.9 kmh NNE 4.5 mph7.2 kmh 29.77 in1008.1 mb 0.07 in1.8 mm 0.00 in/hr0.0 mm/hr 0.63 in16.0 mm
07:40 PM 62.8°F17.1°C 61.0°F16.1°C 94% 2.5 mph NE4.0 kmh NE 5.4 mph8.7 kmh 29.77 in1008.1 mb 0.07 in1.8 mm 0.00 in/hr0.0 mm/hr 0.64 in16.3 mm
07:45 PM 63.0°F17.2°C 61.2°F16.2°C 94% 2.6 mph ENE4.2 kmh ENE 5.4 mph8.7 kmh 29.77 in1008.1 mb 0.07 in1.8 mm 0.00 in/hr0.0 mm/hr 0.64 in16.3 mm
07:50 PM 63.0°F17.2°C 61.2°F16.2°C 94% 2.5 mph E4.0 kmh E 5.4 mph8.7 kmh 29.76 in1007.8 mb 0.08 in2.0 mm 0.12 in/hr3.0 mm/hr 0.65 in16.5 mm
07:55 PM 63.0°F17.2°C 61.2°F16.2°C 94% 3.5 mph ENE5.6 kmh ENE 5.4 mph8.7 kmh 29.77 in1008.1 mb 0.08 in2.0 mm 0.00 in/hr0.0 mm/hr 0.65 in16.5 mm
08:00 PM 62.8°F17.1°C 61.0°F16.1°C 94% 3.7 mph NNE6.0 kmh NNE 5.4 mph8.7 kmh 29.77 in1008.1 mb 0.08 in2.0 mm 0.00 in/hr0.0 mm/hr 0.65 in16.5 mm
08:05 PM 62.8°F17.1°C 61.0°F16.1°C 94% 2.1 mph NW3.4 kmh NW 3.8 mph6.1 kmh 29.77 in1008.1 mb 0.08 in2.0 mm 0.00 in/hr0.0 mm/hr 0.65 in16.5 mm
08:10 PM 63.0°F17.2°C 61.5°F16.4°C 95% 1.0 mph SW1.6 kmh SW 2.2 mph3.5 kmh 29.77 in1008.1 mb 0.05 in1.3 mm 0.00 in/hr0.0 mm/hr 0.65 in16.5 mm
08:15 PM 63.3°F17.4°C 61.9°F16.6°C 95% 1.0 mph SSE1.6 kmh SSE 1.6 mph2.6 kmh 29.77 in1008.1 mb 0.04 in1.0 mm 0.00 in/hr0.0 mm/hr 0.65 in16.5 mm
08:20 PM 63.5°F17.5°C 62.1°F16.7°C 95% 1.5 mph SE2.4 kmh SE 2.2 mph3.5 kmh 29.77 in1008.1 mb 0.04 in1.0 mm 0.00 in/hr0.0 mm/hr 0.65 in16.5 mm
08:25 PM 63.7°F17.6°C 62.2°F16.8°C 95% 1.7 mph SE2.7 kmh SE 2.2 mph3.5 kmh 29.78 in1008.5 mb 0.02 in0.5 mm 0.00 in/hr0.0 mm/hr 0.65 in16.5 mm
08:30 PM 63.9°F17.7°C 62.4°F16.9°C 95% 1.5 mph S2.4 kmh S 2.2 mph3.5 kmh 29.78 in1008.5 mb 0.02 in0.5 mm 0.00 in/hr0.0 mm/hr 0.65 in16.5 mm
08:35 PM 63.9°F17.7°C 62.4°F16.9°C 95% 1.2 mph SSW1.9 kmh SSW 2.2 mph3.5 kmh 29.78 in1008.5 mb 0.02 in0.5 mm 0.00 in/hr0.0 mm/hr 0.65 in16.5 mm
08:40 PM 63.9°F17.7°C 62.4°F16.9°C 95% 1.3 mph S2.1 kmh S 2.2 mph3.5 kmh 29.79 in1008.8 mb 0.01 in0.3 mm 0.00 in/hr0.0 mm/hr 0.65 in16.5 mm
08:45 PM 64.0°F17.8°C 62.6°F17.0°C 95% 1.2 mph S1.9 kmh S 2.2 mph3.5 kmh 29.79 in1008.8 mb 0.01 in0.3 mm 0.00 in/hr0.0 mm/hr 0.65 in16.5 mm
08:50 PM 64.0°F17.8°C 62.6°F17.0°C 95% 1.0 mph S1.6 kmh S 2.2 mph3.5 kmh 29.80 in1009.1 mb 0.00 in0.0 mm 0.00 in/hr0.0 mm/hr 0.65 in16.5 mm
08:55 PM 64.0°F17.8°C 62.6°F17.0°C 95% 0.8 mph S1.3 kmh S 2.2 mph3.5 kmh 29.80 in1009.1 mb 0.00 in0.0 mm 0.00 in/hr0.0 mm/hr 0.65 in16.5 mm
09:00 PM 64.0°F17.8°C 62.6°F17.0°C 95% 0.5 mph SE0.8 kmh SE 2.2 mph3.5 kmh 29.80 in1009.1 mb 0.00 in0.0 mm 0.00 in/hr0.0 mm/hr 0.65 in16.5 mm
09:05 PM 64.0°F17.8°C 62.6°F17.0°C 95% 0.4 mph S0.6 kmh S 1.6 mph2.6 kmh 29.80 in1009.1 mb 0.00 in0.0 mm 0.00 in/hr0.0 mm/hr 0.65 in16.5 mm
09:10 PM 64.0°F17.8°C 62.3°F16.8°C 94% 0.6 mph W1.0 kmh W 1.6 mph2.6 kmh 29.80 in1009.1 mb 0.01 in0.3 mm 0.12 in/hr3.0 mm/hr 0.66 in16.8 mm
09:15 PM 64.0°F17.8°C 62.3°F16.8°C 94% 1.3 mph W2.1 kmh W 3.1 mph5.0 kmh 29.81 in1009.5 mb 0.01 in0.3 mm 0.00 in/hr0.0 mm/hr 0.66 in16.8 mm
09:20 PM 64.0°F17.8°C 62.6°F17.0°C 95% 1.3 mph W2.1 kmh W 3.1 mph5.0 kmh 29.81 in1009.5 mb 0.01 in0.3 mm 0.00 in/hr0.0 mm/hr 0.66 in16.8 mm
09:25 PM 64.0°F17.8°C 62.3°F16.8°C 94% 1.2 mph WSW1.9 kmh WSW 2.2 mph3.5 kmh 29.81 in1009.5 mb 0.01 in0.3 mm 0.00 in/hr0.0 mm/hr 0.66 in16.8 mm
09:30 PM 64.0°F17.8°C 62.6°F17.0°C 95% 2.2 mph SSW3.5 kmh SSW 4.5 mph7.2 kmh 29.82 in1009.8 mb 0.02 in0.5 mm 0.12 in/hr3.0 mm/hr 0.67 in17.0 mm
09:35 PM 63.7°F17.6°C 62.2°F16.8°C 95% 3.5 mph SSW5.6 kmh SSW 5.4 mph8.7 kmh 29.81 in1009.5 mb 0.02 in0.5 mm 0.00 in/hr0.0 mm/hr 0.67 in17.0 mm
09:40 PM 63.7°F17.6°C 61.9°F16.6°C 94% 4.0 mph SW6.4 kmh SW 5.4 mph8.7 kmh 29.81 in1009.5 mb 0.02 in0.5 mm 0.00 in/hr0.0 mm/hr 0.67 in17.0 mm
09:45 PM 63.5°F17.5°C 61.2°F16.2°C 92% 3.3 mph SW5.3 kmh SW 5.4 mph8.7 kmh 29.81 in1009.5 mb 0.02 in0.5 mm 0.00 in/hr0.0 mm/hr 0.67 in17.0 mm
09:50 PM 63.3°F17.4°C 61.0°F16.1°C 92% 3.1 mph SW5.0 kmh SW 5.4 mph8.7 kmh 29.82 in1009.8 mb 0.02 in0.5 mm 0.00 in/hr0.0 mm/hr 0.67 in17.0 mm
09:55 PM 63.1°F17.3°C 60.8°F16.0°C 92% 2.7 mph SW4.3 kmh SW 5.4 mph8.7 kmh 29.81 in1009.5 mb 0.02 in0.5 mm 0.00 in/hr0.0 mm/hr 0.67 in17.0 mm
10:00 PM 63.0°F17.2°C 60.3°F15.7°C 91% 2.6 mph W4.2 kmh W 4.5 mph7.2 kmh 29.82 in1009.8 mb 0.02 in0.5 mm 0.00 in/hr0.0 mm/hr 0.67 in17.0 mm
10:05 PM 63.0°F17.2°C 60.3°F15.7°C 91% 2.9 mph W4.7 kmh W 4.5 mph7.2 kmh 29.83 in1010.2 mb 0.02 in0.5 mm 0.00 in/hr0.0 mm/hr 0.67 in17.0 mm
10:10 PM 62.8°F17.1°C 59.8°F15.4°C 90% 2.8 mph W4.5 kmh W 4.5 mph7.2 kmh 29.83 in1010.2 mb 0.01 in0.3 mm 0.00 in/hr0.0 mm/hr 0.67 in17.0 mm
10:15 PM 62.8°F17.1°C 59.8°F15.4°C 90% 3.5 mph W5.6 kmh W 4.5 mph7.2 kmh 29.83 in1010.2 mb 0.01 in0.3 mm 0.00 in/hr0.0 mm/hr 0.67 in17.0 mm
10:20 PM 62.6°F17.0°C 59.6°F15.3°C 90% 3.1 mph W5.0 kmh W 4.5 mph7.2 kmh 29.83 in1010.2 mb 0.01 in0.3 mm 0.00 in/hr0.0 mm/hr 0.67 in17.0 mm
10:25 PM 62.6°F17.0°C 59.3°F15.2°C 89% 2.8 mph WSW4.5 kmh WSW 5.4 mph8.7 kmh 29.83 in1010.2 mb 0.01 in0.3 mm 0.00 in/hr0.0 mm/hr 0.67 in17.0 mm
10:30 PM 62.4°F16.9°C 59.2°F15.1°C 89% 3.3 mph WSW5.3 kmh WSW 6.9 mph11.1 kmh 29.84 in1010.5 mb 0.00 in0.0 mm 0.00 in/hr0.0 mm/hr 0.67 in17.0 mm
10:35 PM 62.2°F16.8°C 58.7°F14.8°C 88% 3.6 mph W5.8 kmh W 6.9 mph11.1 kmh 29.84 in1010.5 mb 0.00 in0.0 mm 0.00 in/hr0.0 mm/hr 0.67 in17.0 mm
10:40 PM 61.9°F16.6°C 58.3°F14.6°C 88% 3.7 mph W6.0 kmh W 6.9 mph11.1 kmh 29.85 in1010.8 mb 0.00 in0.0 mm 0.00 in/hr0.0 mm/hr 0.67 in17.0 mm
10:45 PM 61.5°F16.4°C 57.9°F14.4°C 88% 3.8 mph WSW6.1 kmh WSW 7.6 mph12.2 kmh 29.84 in1010.5 mb 0.00 in0.0 mm 0.00 in/hr0.0 mm/hr 0.67 in17.0 mm
10:50 PM 61.2°F16.2°C 57.6°F14.2°C 88% 3.5 mph WSW5.6 kmh WSW 7.6 mph12.2 kmh 29.85 in1010.8 mb 0.00 in0.0 mm 0.00 in/hr0.0 mm/hr 0.67 in17.0 mm
10:55 PM 61.2°F16.2°C 57.6°F14.2°C 88% 3.8 mph WSW6.1 kmh WSW 8.3 mph13.4 kmh 29.86 in1011.2 mb 0.00 in0.0 mm 0.00 in/hr0.0 mm/hr 0.67 in17.0 mm
11:00 PM 60.8°F16.0°C 56.9°F13.8°C 87% 4.6 mph WSW7.4 kmh WSW 8.3 mph13.4 kmh 29.86 in1011.2 mb 0.00 in0.0 mm 0.00 in/hr0.0 mm/hr 0.57 in14.5 mm
11:05 PM 60.6°F15.9°C 56.7°F13.7°C 87% 4.5 mph WSW7.2 kmh WSW 8.3 mph13.4 kmh 29.86 in1011.2 mb 0.00 in0.0 mm 0.00 in/hr0.0 mm/hr 0.57 in14.5 mm
11:10 PM 60.3°F15.7°C 56.4°F13.6°C 87% 4.7 mph WSW7.6 kmh WSW 6.9 mph11.1 kmh 29.86 in1011.2 mb 0.00 in0.0 mm 0.00 in/hr0.0 mm/hr 0.57 in14.5 mm
11:15 PM 59.9°F15.5°C 56.0°F13.3°C 87% 4.8 mph WSW7.7 kmh WSW 6.9 mph11.1 kmh 29.87 in1011.5 mb 0.00 in0.0 mm 0.00 in/hr0.0 mm/hr 0.57 in14.5 mm
11:20 PM 59.7°F15.4°C 55.9°F13.3°C 87% 4.4 mph SW7.1 kmh SW 7.6 mph12.2 kmh 29.87 in1011.5 mb 0.00 in0.0 mm 0.00 in/hr0.0 mm/hr 0.57 in14.5 mm
11:25 PM 59.5°F15.3°C 55.7°F13.2°C 87% 4.6 mph SW7.4 kmh SW 7.6 mph12.2 kmh 29.87 in1011.5 mb 0.00 in0.0 mm 0.00 in/hr0.0 mm/hr 0.57 in14.5 mm
11:30 PM 59.4°F15.2°C 55.8°F13.2°C 88% 5.8 mph WSW9.3 kmh WSW 10.7 mph17.2 kmh 29.88 in1011.9 mb 0.00 in0.0 mm 0.00 in/hr0.0 mm/hr 0.57 in14.5 mm
11:35 PM 59.2°F15.1°C 55.6°F13.1°C 88% 6.1 mph WSW9.8 kmh WSW 10.7 mph17.2 kmh 29.88 in1011.9 mb 0.00 in0.0 mm 0.00 in/hr0.0 mm/hr 0.57 in14.5 mm
11:40 PM 58.8°F14.9°C 55.3°F12.9°C 88% 5.0 mph W8.0 kmh W 9.8 mph15.8 kmh 29.88 in1011.9 mb 0.00 in0.0 mm 0.00 in/hr0.0 mm/hr 0.57 in14.5 mm
11:45 PM 58.6°F14.8°C 55.1°F12.8°C 88% 5.1 mph WSW8.2 kmh WSW 8.3 mph13.4 kmh 29.88 in1011.9 mb 0.00 in0.0 mm 0.00 in/hr0.0 mm/hr 0.57 in14.5 mm
11:50 PM 58.3°F14.6°C 54.4°F12.4°C 87% 5.8 mph WSW9.3 kmh WSW 10.7 mph17.2 kmh 29.88 in1011.9 mb 0.00 in0.0 mm 0.00 in/hr0.0 mm/hr 0.57 in14.5 mm
11:55 PM 58.3°F14.6°C 54.8°F12.7°C 88% 5.9 mph WSW9.5 kmh WSW 10.7 mph17.2 kmh 29.88 in1011.9 mb 0.00 in0.0 mm 0.00 in/hr0.0 mm/hr 0.57 in14.5 mm